Terminal Aerodrome Forecast
Issued by NWS Medford, OR

Home | Current Version | Previous Version | Text Only | Print | Product List | Glossary On
Versions: 1 2 3 4 5 6 7 8 9 10 11 12 13 14 15 16 17 18 19 20 21 22
000
FTUS46 KMFR 041137
TAFMFR
TAF
KMFR 041137Z 0412/0512 VRB03KT 5SM -RA BR BKN010 OVC030
     FM042100 30007KT 6SM -SHRA BR SCT010 OVC019
     FM050300 35004KT P6SM VCSH SCT015 BKN025 OVC035
     FM050900 VRB02KT P6SM SCT005 OVC010=

USA.gov is the U.S. government's official web portal to all federal, state and local government web resources and services.